createdAt,value
2023-02-07T00:01:40.852Z,22.80
2023-02-07T00:04:09.182Z,23.10
2023-02-07T00:06:37.599Z,23.20
2023-02-07T00:09:07.965Z,23.20
2023-02-07T00:11:37.785Z,23.30
2023-02-07T00:14:06.185Z,23.40
2023-02-07T00:16:34.935Z,23.60
2023-02-07T00:19:02.829Z,23.60
2023-02-07T00:21:31.076Z,23.30
2023-02-07T00:23:59.554Z,23.10
2023-02-07T00:26:28.763Z,22.90
2023-02-07T00:28:57.874Z,22.80
2023-02-07T00:31:29.682Z,22.70
2023-02-07T00:34:03.146Z,22.60
2023-02-07T00:36:33.580Z,22.60
2023-02-07T00:39:04.709Z,22.60
2023-02-07T00:41:33.546Z,22.50
2023-02-07T00:44:01.765Z,22.40
2023-02-07T00:46:31.461Z,22.40
2023-02-07T00:49:01.051Z,22.70
2023-02-07T00:51:29.487Z,22.90
2023-02-07T00:54:00.658Z,23.00
2023-02-07T00:56:30.909Z,23.10
2023-02-07T00:59:00.043Z,23.20
2023-02-07T01:01:28.545Z,23.30
2023-02-07T01:03:58.234Z,23.40
2023-02-07T01:06:26.815Z,23.50
2023-02-07T01:09:03.210Z,23.60
2023-02-07T01:11:33.064Z,23.40
2023-02-07T01:14:01.972Z,23.10
2023-02-07T01:16:37.170Z,22.90
2023-02-07T01:19:11.383Z,22.80
2023-02-07T01:21:39.798Z,22.70
2023-02-07T01:24:08.847Z,22.50
2023-02-07T01:26:38.629Z,22.50
2023-02-07T01:29:07.478Z,22.50
2023-02-07T01:31:36.258Z,22.40
2023-02-07T01:34:05.720Z,22.50
2023-02-07T01:36:34.316Z,22.70
2023-02-07T01:39:02.506Z,22.90
2023-02-07T01:41:30.986Z,23.00
2023-02-07T01:44:08.739Z,23.10
2023-02-07T01:46:37.651Z,23.20
2023-02-07T01:49:14.114Z,23.30
2023-02-07T01:51:50.143Z,23.40
2023-02-07T01:54:19.366Z,23.60
2023-02-07T01:56:52.806Z,23.50
2023-02-07T01:59:21.973Z,23.30
2023-02-07T02:01:50.477Z,23.00
2023-02-07T02:04:19.265Z,22.90
2023-02-07T02:06:47.885Z,22.80
2023-02-07T02:09:17.124Z,22.70
2023-02-07T02:12:06.143Z,22.60
2023-02-07T02:14:51.997Z,22.50
2023-02-07T02:17:57.346Z,22.50
2023-02-07T02:20:37.780Z,22.40
2023-02-07T02:23:09.102Z,22.40
2023-02-07T02:26:05.021Z,22.40
2023-02-07T02:29:04.417Z,22.60
2023-02-07T02:31:35.733Z,22.80
2023-02-07T02:34:35.815Z,22.90
2023-02-07T02:37:18.877Z,23.10
2023-02-07T02:40:11.038Z,23.10
2023-02-07T02:42:43.780Z,23.20
2023-02-07T02:45:40.554Z,23.30
2023-02-07T02:48:11.961Z,23.50
2023-02-07T02:50:45.648Z,23.50
2023-02-07T02:53:16.046Z,23.20
2023-02-07T02:56:05.965Z,23.00
2023-02-07T02:59:10.482Z,22.80
2023-02-07T03:01:44.691Z,22.70
2023-02-07T03:04:46.545Z,22.60
2023-02-07T03:07:43.934Z,22.50
2023-02-07T03:10:19.994Z,22.40
2023-02-07T03:13:16.107Z,22.40
2023-02-07T03:16:05.614Z,22.30
2023-02-07T03:18:46.340Z,22.60
2023-02-07T03:21:20.729Z,22.80
2023-02-07T03:23:52.000Z,22.90
2023-02-07T03:26:22.219Z,23.00
2023-02-07T03:28:56.944Z,23.10
2023-02-07T03:31:27.677Z,23.20
2023-02-07T03:34:04.084Z,23.30
2023-02-07T03:37:01.899Z,23.40
2023-02-07T03:39:30.334Z,23.50
2023-02-07T03:42:02.880Z,23.50
2023-02-07T03:44:34.454Z,23.10
2023-02-07T03:47:02.851Z,22.90
2023-02-07T03:49:31.123Z,22.70
2023-02-07T03:51:59.398Z,22.50
2023-02-07T03:54:27.868Z,22.60
2023-02-07T03:56:56.153Z,22.80
2023-02-07T03:59:24.337Z,23.00
2023-02-07T04:01:52.674Z,23.10
2023-02-07T04:04:21.298Z,23.20
2023-02-07T04:06:49.486Z,23.30
2023-02-07T04:09:17.750Z,23.40
2023-02-07T04:11:49.217Z,23.50
2023-02-07T04:14:17.946Z,23.60
2023-02-07T04:16:46.260Z,23.30
2023-02-07T04:19:14.866Z,23.10
2023-02-07T04:21:43.650Z,22.90
2023-02-07T04:24:12.773Z,22.80
2023-02-07T04:26:42.018Z,22.60
2023-02-07T04:29:10.378Z,22.50
2023-02-07T04:31:38.864Z,22.40
2023-02-07T04:34:07.001Z,22.50
2023-02-07T04:36:35.255Z,22.70
2023-02-07T04:39:04.300Z,22.90
2023-02-07T04:41:32.806Z,23.00
2023-02-07T04:44:01.100Z,23.10
2023-02-07T04:46:29.296Z,23.20
2023-02-07T04:48:59.198Z,23.20
2023-02-07T04:51:27.659Z,23.30
2023-02-07T04:53:55.954Z,23.40
2023-02-07T04:56:24.744Z,23.60
2023-02-07T04:58:52.749Z,23.50
2023-02-07T05:01:21.117Z,23.40
2023-02-07T05:03:49.365Z,23.70
2023-02-07T05:06:17.690Z,23.90
2023-02-07T05:08:45.873Z,24.10
2023-02-07T05:11:14.241Z,23.80
2023-02-07T05:13:42.491Z,23.40
2023-02-07T05:16:10.781Z,23.10
2023-02-07T05:18:39.000Z,22.90
2023-02-07T05:21:07.346Z,22.80
2023-02-07T05:23:35.570Z,22.60
2023-02-07T05:26:03.950Z,22.80
2023-02-07T05:28:32.238Z,22.90
2023-02-07T05:31:00.428Z,23.10
2023-02-07T05:33:28.890Z,23.20
2023-02-07T05:35:57.131Z,23.20
2023-02-07T05:38:25.318Z,23.30
2023-02-07T05:40:53.581Z,23.30
2023-02-07T05:43:21.949Z,23.40
2023-02-07T05:45:50.675Z,23.50
2023-02-07T05:48:19.056Z,23.60
2023-02-07T05:50:47.366Z,23.50
2023-02-07T05:53:15.519Z,23.20
2023-02-07T05:55:43.944Z,22.90
2023-02-07T05:58:12.062Z,22.70
2023-02-07T06:00:40.318Z,22.60
2023-02-07T06:03:08.612Z,22.50
2023-02-07T06:05:37.129Z,22.70
2023-02-07T06:08:05.411Z,22.90
2023-02-07T06:10:33.691Z,23.00
2023-02-07T06:13:02.110Z,23.10
2023-02-07T06:15:30.475Z,23.20
2023-02-07T06:17:59.607Z,23.30
2023-02-07T06:20:27.876Z,23.30
2023-02-07T06:22:56.885Z,23.40
2023-02-07T06:25:25.335Z,23.60
2023-02-07T06:27:53.616Z,23.60
2023-02-07T06:30:21.967Z,23.50
2023-02-07T06:32:50.198Z,23.20
2023-02-07T06:35:18.752Z,23.00
2023-02-07T06:37:46.925Z,22.80
2023-02-07T06:40:15.520Z,22.70
2023-02-07T18:24:05.963Z,23.60
2023-02-07T18:26:34.543Z,23.30
2023-02-07T18:29:02.986Z,23.10
2023-02-07T18:31:31.560Z,23.20
2023-02-07T18:39:40.303Z,23.70
2023-02-07T18:42:08.620Z,24.00
2023-02-07T18:44:36.943Z,24.10
2023-02-07T18:47:05.213Z,23.80
2023-02-07T18:49:34.895Z,23.60
2023-02-07T18:52:03.984Z,23.40
2023-02-07T18:54:32.462Z,23.60
2023-02-07T18:57:00.571Z,23.90
2023-02-07T18:59:29.292Z,24.20
2023-02-07T19:01:57.616Z,24.00
2023-02-07T19:04:26.103Z,23.80
2023-02-07T19:06:54.394Z,23.70
2023-02-07T19:09:23.128Z,23.60
2023-02-07T19:11:52.413Z,23.50
2023-02-07T19:14:23.911Z,23.50
2023-02-07T19:16:53.570Z,23.40
2023-02-07T19:19:22.646Z,23.40
2023-02-07T19:21:52.120Z,23.30
2023-02-07T19:24:21.959Z,23.20
2023-02-07T19:26:53.024Z,23.20
2023-02-07T19:29:23.718Z,23.10
2023-02-07T19:31:51.924Z,23.00
2023-02-07T19:34:20.154Z,23.20
2023-02-07T19:36:48.449Z,23.30
2023-02-07T19:39:16.899Z,23.40
2023-02-07T19:41:45.250Z,23.50
2023-02-07T19:44:13.906Z,23.60
2023-02-07T19:46:41.913Z,23.60
2023-02-07T19:49:11.719Z,23.70
2023-02-07T19:51:40.851Z,23.80
2023-02-07T19:54:09.287Z,23.80
2023-02-07T19:56:40.738Z,23.90
2023-02-07T19:59:08.975Z,23.90
2023-02-07T20:01:37.879Z,23.80
2023-02-07T20:04:06.680Z,23.40
2023-02-07T20:06:35.979Z,23.30
2023-02-07T20:09:06.562Z,23.40
2023-02-07T20:11:35.843Z,23.50
2023-02-07T20:14:04.511Z,23.70
2023-02-07T20:16:36.094Z,23.80
2023-02-07T20:19:08.240Z,23.90
2023-02-07T20:21:37.625Z,23.70
2023-02-07T20:24:06.718Z,23.40
2023-02-07T20:26:43.762Z,23.30
2023-02-07T20:29:17.815Z,23.40
2023-02-07T20:31:47.891Z,23.50
2023-02-07T20:34:17.358Z,23.70
2023-02-07T20:36:45.599Z,23.90
2023-02-07T20:39:16.775Z,23.80
2023-02-07T20:41:46.071Z,23.50
2023-02-07T20:44:20.422Z,23.30
2023-02-07T20:46:49.853Z,23.30
2023-02-07T20:49:26.110Z,23.40
2023-02-07T20:51:55.186Z,23.60
2023-02-07T20:54:26.808Z,23.90
2023-02-07T20:56:56.071Z,23.80
2023-02-07T20:59:29.978Z,23.50
2023-02-07T21:01:58.474Z,23.20
2023-02-07T21:04:28.324Z,23.10
2023-02-07T21:06:56.857Z,23.00
2023-02-07T21:09:24.974Z,23.20
2023-02-07T21:11:55.882Z,23.30
2023-02-07T21:14:26.806Z,23.40
2023-02-07T21:16:56.655Z,23.60
2023-02-07T21:19:26.139Z,23.80
2023-02-07T21:21:54.913Z,23.70
2023-02-07T21:24:23.703Z,23.40
2023-02-07T21:26:53.281Z,23.30
2023-02-07T21:29:22.211Z,23.10
2023-02-07T21:31:51.552Z,23.00
2023-02-07T21:34:20.049Z,22.90
2023-02-07T21:36:49.665Z,23.10
2023-02-07T21:39:18.207Z,23.30
2023-02-07T21:41:52.190Z,23.40
2023-02-07T21:44:20.554Z,23.50
2023-02-07T21:46:49.173Z,23.60
2023-02-07T21:49:18.760Z,23.80
2023-02-07T21:51:48.660Z,23.80
2023-02-07T21:54:17.440Z,23.60
2023-02-07T21:56:46.327Z,23.40
2023-02-07T21:59:17.868Z,23.30
2023-02-07T22:01:47.342Z,23.10
2023-02-07T22:04:17.295Z,23.00
2023-02-07T22:06:46.269Z,22.90
2023-02-07T22:09:16.851Z,22.90
2023-02-07T22:11:45.537Z,22.80
2023-02-07T22:14:14.572Z,22.70
2023-02-07T22:16:43.479Z,22.80
2023-02-07T22:19:14.342Z,23.10
2023-02-07T22:21:42.603Z,23.20
2023-02-07T22:24:23.407Z,23.30
2023-02-07T22:26:59.641Z,23.40
2023-02-07T22:29:28.070Z,23.50
2023-02-07T22:31:56.473Z,23.60
2023-02-07T22:34:24.766Z,23.60
2023-02-07T22:36:53.318Z,23.70
2023-02-07T22:39:21.558Z,23.60
2023-02-07T22:41:50.015Z,23.30
2023-02-07T22:44:18.283Z,23.10
2023-02-07T22:46:47.868Z,23.00
2023-02-07T22:49:16.262Z,22.90
2023-02-07T22:51:44.613Z,22.90
2023-02-07T22:54:17.969Z,22.80
2023-02-07T22:56:57.455Z,22.70
2023-02-07T22:59:32.000Z,22.60
2023-02-07T23:02:01.732Z,22.80
2023-02-07T23:04:30.200Z,23.10
2023-02-07T23:06:58.435Z,23.20
2023-02-07T23:09:26.661Z,23.30
2023-02-07T23:11:55.970Z,23.40
2023-02-07T23:14:24.346Z,23.50
2023-02-07T23:16:52.546Z,23.60
2023-02-07T23:19:20.744Z,23.70
2023-02-07T23:21:51.877Z,23.70
2023-02-07T23:24:20.130Z,23.60
2023-02-07T23:26:48.784Z,23.40
2023-02-07T23:29:20.499Z,23.20
2023-02-07T23:31:50.049Z,23.00
2023-02-07T23:34:18.445Z,22.90
2023-02-07T23:36:46.633Z,22.80
2023-02-07T23:39:15.372Z,22.70
2023-02-07T23:41:43.645Z,22.70
2023-02-07T23:44:11.775Z,22.90
2023-02-07T23:46:40.108Z,23.10
2023-02-07T23:49:08.462Z,23.20
2023-02-07T23:51:39.234Z,23.30
2023-02-07T23:54:12.326Z,23.40
2023-02-07T23:56:40.640Z,23.40
2023-02-07T23:59:10.355Z,23.60
